Time;durP1;ratioP1;P1;durP2;ratioP2;P2;SDS_P1;SDS_P2;PMS_P1;PMS_P2;Temp;Humidity;BMP_temperature;BMP_pressure;BME280_temperature;BME280_humidity;BME280_pressure;Samples;Min_cycle;Max_cycle;Signal;HPM_P1;HPM_P2
2021/01/29 00:00:23;;;;;;;113.03;31.30;;;;;;;7.31;99.85;99834.97;5082743;28;19972;-85
2021/01/29 00:02:50;;;;;;;107.53;29.80;;;;;;;7.22;99.99;99835.66;5079717;28;20131;-84
2021/01/29 00:05:16;;;;;;;104.93;30.63;;;;;;;7.19;99.80;99822.81;5076066;28;20036;-84
2021/01/29 00:07:43;;;;;;;121.20;30.75;;;;;;;7.31;99.85;99815.41;5073142;28;20119;-85
2021/01/29 00:10:09;;;;;;;90.07;31.27;;;;;;;7.35;99.78;99806.09;5081208;28;20875;-85
2021/01/29 00:12:34;;;;;;;96.68;30.55;;;;;;;7.46;99.58;99804.59;5082588;28;20022;-84
2021/01/29 00:15:00;;;;;;;103.20;29.97;;;;;;;7.32;99.49;99796.69;5086116;28;20021;-83
2021/01/29 00:17:26;;;;;;;105.75;31.98;;;;;;;7.30;99.50;99795.78;5079925;28;20270;-83
2021/01/29 00:19:51;;;;;;;98.95;32.40;;;;;;;7.29;99.72;99793.22;5080403;28;20033;-84
2021/01/29 00:22:17;;;;;;;138.73;30.97;;;;;;;7.26;99.89;99791.47;5080966;28;20020;-84
2021/01/29 00:24:49;;;;;;;114.47;32.03;;;;;;;7.46;99.56;99786.72;5086812;28;20269;-84
2021/01/29 00:27:15;;;;;;;107.77;29.70;;;;;;;7.54;99.58;99776.66;5081416;28;20032;-83
2021/01/29 00:29:40;;;;;;;124.63;31.00;;;;;;;7.42;99.63;99775.59;5092783;28;20028;-83
2021/01/29 00:32:05;;;;;;;128.50;33.00;;;;;;;7.42;99.61;99767.91;5085332;28;20028;-83
2021/01/29 00:34:31;;;;;;;130.98;33.95;;;;;;;7.39;99.66;99767.00;5082112;28;20020;-83
2021/01/29 00:36:56;;;;;;;117.57;31.20;;;;;;;7.43;99.73;99759.41;5082523;28;20115;-85
2021/01/29 00:39:21;;;;;;;107.43;32.47;;;;;;;7.41;99.67;99750.00;5085038;28;20267;-85
2021/01/29 00:41:47;;;;;;;112.13;32.33;;;;;;;7.45;99.58;99742.41;5087884;28;20273;-82
2021/01/29 00:44:12;;;;;;;114.05;34.13;;;;;;;7.48;99.70;99742.50;5078331;28;20278;-83
2021/01/29 00:46:37;;;;;;;125.03;33.35;;;;;;;7.53;99.82;99734.06;5082339;28;20024;-82
2021/01/29 00:49:03;;;;;;;115.23;31.93;;;;;;;7.54;99.75;99733.22;5086269;28;20024;-83
2021/01/29 00:51:28;;;;;;;120.53;33.92;;;;;;;7.54;99.75;99725.56;5093540;28;20138;-83
2021/01/29 00:53:53;;;;;;;108.17;33.87;;;;;;;7.53;99.64;99718.72;5086468;28;20056;-82
2021/01/29 00:56:19;;;;;;;116.50;34.03;;;;;;;7.61;99.68;99712.91;5089109;28;20348;-84
2021/01/29 00:58:44;;;;;;;132.57;34.30;;;;;;;7.63;99.60;99711.25;5087455;28;20274;-83
2021/01/29 01:01:09;;;;;;;107.80;34.40;;;;;;;7.59;99.65;99698.38;5080710;28;20095;-83
2021/01/29 01:03:34;;;;;;;104.20;34.93;;;;;;;7.69;99.65;99700.25;5081866;28;20274;-83
2021/01/29 01:06:00;;;;;;;119.13;34.53;;;;;;;7.67;99.61;99681.47;5081086;28;20654;-83
2021/01/29 01:08:26;;;;;;;124.30;33.08;;;;;;;7.67;99.64;99678.91;5089048;28;20025;-82
2021/01/29 01:10:52;;;;;;;129.68;34.88;;;;;;;7.64;99.65;99676.31;5084489;28;20111;-84
2021/01/29 01:13:17;;;;;;;127.85;35.85;;;;;;;7.69;99.48;99670.44;5085810;28;20067;-85
2021/01/29 01:15:42;;;;;;;132.57;35.80;;;;;;;7.70;99.58;99661.06;5084379;28;20028;-82
2021/01/29 01:18:09;;;;;;;118.82;33.30;;;;;;;7.70;99.58;99666.19;5081736;28;20032;-82
2021/01/29 01:20:35;;;;;;;131.83;36.67;;;;;;;7.85;99.36;99665.59;5080812;28;20066;-83
2021/01/29 01:23:00;;;;;;;108.78;33.58;;;;;;;7.77;99.56;99655.22;5087085;28;20096;-82
2021/01/29 01:25:26;;;;;;;103.03;34.70;;;;;;;7.82;99.35;99652.75;5080168;28;20024;-82
2021/01/29 01:27:52;;;;;;;112.87;34.40;;;;;;;7.79;99.53;99645.88;5079350;28;20036;-83
2021/01/29 01:30:24;;;;;;;118.95;34.25;;;;;;;7.85;99.38;99643.44;5084165;28;20676;-84
2021/01/29 01:32:53;;;;;;;114.30;33.17;;;;;;;7.80;99.30;99637.38;5081888;28;20036;-84
2021/01/29 01:35:19;;;;;;;104.93;33.17;;;;;;;7.77;99.27;99630.50;5079827;28;20074;-83
2021/01/29 01:37:44;;;;;;;96.53;32.80;;;;;;;7.76;99.25;99626.25;5083047;28;20028;-82
2021/01/29 01:40:11;;;;;;;101.55;31.80;;;;;;;7.85;99.45;99620.44;5082027;28;20035;-85
2021/01/29 01:42:36;;;;;;;119.77;32.63;;;;;;;7.81;99.46;99608.44;5082287;28;20036;-83
2021/01/29 01:45:27;;;;;;;98.03;32.40;;;;;;;7.86;99.55;99601.69;5078431;28;20077;-84
2021/01/29 01:48:02;;;;;;;92.00;28.83;;;;;;;7.95;99.36;99581.38;5081575;28;20031;-84
2021/01/29 01:50:41;;;;;;;94.50;31.17;;;;;;;7.91;99.34;99586.41;5076405;28;20021;-84
2021/01/29 01:53:20;;;;;;;93.03;30.23;;;;;;;7.90;99.39;99580.44;5078362;28;20072;-83
2021/01/29 01:55:49;;;;;;;87.43;30.13;;;;;;;7.94;99.41;99564.31;5085353;28;20055;-83
2021/01/29 01:58:15;;;;;;;113.03;32.53;;;;;;;7.95;99.49;99562.59;5076164;28;20025;-82
2021/01/29 02:00:40;;;;;;;83.68;29.85;;;;;;;8.00;99.26;99553.28;5080374;28;20020;-85
2021/01/29 02:03:23;;;;;;;99.32;30.00;;;;;;;7.95;99.21;99543.00;5083354;28;20024;-84
2021/01/29 02:05:48;;;;;;;88.53;29.90;;;;;;;7.91;99.20;99538.69;5081516;28;20028;-84
2021/01/29 02:08:16;;;;;;;93.80;28.92;;;;;;;7.90;99.21;99536.13;5076679;28;20028;-83
2021/01/29 02:10:41;;;;;;;86.77;29.77;;;;;;;7.92;99.23;99530.19;5075345;28;20041;-84
2021/01/29 02:13:08;;;;;;;79.20;28.00;;;;;;;7.95;99.14;99524.25;5075677;28;20024;-83
2021/01/29 02:15:37;;;;;;;73.97;28.07;;;;;;;7.96;99.22;99511.47;5079983;28;20044;-85
2021/01/29 02:18:31;;;;;;;85.67;26.57;;;;;;;7.92;98.98;99507.16;5072010;28;20029;-83
2021/01/29 02:21:33;;;;;;;69.83;24.40;;;;;;;7.89;99.24;99493.50;5089323;28;20016;-82
2021/01/29 02:24:04;;;;;;;69.20;25.07;;;;;;;7.88;99.16;99484.97;5078620;28;20033;-84
2021/01/29 02:27:11;;;;;;;81.40;26.23;;;;;;;7.90;99.14;99475.63;5081393;28;20679;-82
2021/01/29 02:29:53;;;;;;;74.40;25.93;;;;;;;7.89;99.02;99471.34;5056434;28;20521;-85
2021/01/29 02:32:59;;;;;;;69.63;25.40;;;;;;;8.02;98.86;99469.78;5080774;28;20028;-83
2021/01/29 02:36:06;;;;;;;65.60;25.73;;;;;;;7.93;98.77;99460.31;5053609;28;20040;-83
2021/01/29 02:38:51;;;;;;;77.87;26.37;;;;;;;7.93;98.89;99449.22;5079366;28;20021;-83
2021/01/29 02:41:37;;;;;;;71.60;26.73;;;;;;;7.86;98.78;99442.31;5078692;28;20471;-83
2021/01/29 02:44:28;;;;;;;64.80;25.60;;;;;;;7.90;98.95;99433.84;5076549;28;20115;-83
2021/01/29 02:46:57;;;;;;;69.33;25.20;;;;;;;8.00;98.98;99421.16;5083972;28;20152;-83
2021/01/29 02:49:57;;;;;;;63.93;25.50;;;;;;;8.04;98.90;99410.13;5079669;28;20026;-84
2021/01/29 02:52:26;;;;;;;64.50;24.17;;;;;;;8.04;98.74;99402.47;5081079;28;20056;-84
2021/01/29 02:55:08;;;;;;;62.10;24.50;;;;;;;8.02;98.85;99391.34;5080275;28;20024;-84
2021/01/29 02:58:00;;;;;;;58.97;22.70;;;;;;;8.01;98.63;99384.53;5075887;28;20115;-84
2021/01/29 03:00:38;;;;;;;62.87;23.00;;;;;;;7.98;98.84;99375.97;5083521;28;20443;-84
2021/01/29 03:03:15;;;;;;;54.53;21.30;;;;;;;7.93;98.76;99368.25;5079357;28;20036;-83
2021/01/29 03:05:48;;;;;;;55.10;21.83;;;;;;;8.09;98.93;99359.88;5084796;28;20504;-83
2021/01/29 03:08:23;;;;;;;58.07;21.60;;;;;;;8.03;98.96;99354.72;5077982;28;20060;-82
2021/01/29 03:11:30;;;;;;;60.17;23.40;;;;;;;7.97;98.79;99347.00;5083689;28;20474;-82
2021/01/29 03:14:06;;;;;;;54.03;22.75;;;;;;;8.06;98.59;99334.28;5075824;28;20470;-84
2021/01/29 03:16:40;;;;;;;55.42;23.17;;;;;;;8.07;98.60;99330.03;5083720;28;20507;-84
2021/01/29 03:19:20;;;;;;;55.33;22.83;;;;;;;8.08;98.69;99327.47;5083703;28;20074;-83
2021/01/29 03:21:52;;;;;;;51.03;21.90;;;;;;;8.09;98.75;99318.09;5077577;28;20027;-83
2021/01/29 03:24:22;;;;;;;48.17;22.00;;;;;;;8.05;98.92;99313.81;5073091;28;20048;-82
2021/01/29 03:26:57;;;;;;;59.37;22.67;;;;;;;8.07;99.16;99307.00;5075900;28;20452;-83
2021/01/29 03:29:25;;;;;;;44.30;20.77;;;;;;;8.14;98.91;99297.72;5076769;28;20034;-84
2021/01/29 03:31:57;;;;;;;44.10;20.63;;;;;;;8.10;99.24;99300.22;5078008;28;20116;-84
2021/01/29 03:34:30;;;;;;;37.87;18.60;;;;;;;8.10;99.07;99287.44;5079493;28;20497;-84
2021/01/29 03:37:14;;;;;;;40.30;17.90;;;;;;;8.11;99.18;99286.59;5078370;28;20081;-81
2021/01/29 03:39:39;;;;;;;31.50;14.60;;;;;;;8.09;99.04;99280.59;5078716;28;20121;-82
2021/01/29 03:42:23;;;;;;;36.15;16.30;;;;;;;8.04;98.95;99274.59;5073058;28;20048;-82
2021/01/29 03:44:54;;;;;;;32.07;13.40;;;;;;;8.10;99.05;99273.78;5085689;28;20028;-82
2021/01/29 03:47:31;;;;;;;29.53;13.60;;;;;;;8.10;99.06;99277.19;5077806;28;20028;-82
2021/01/29 03:50:19;;;;;;;25.67;11.93;;;;;;;8.12;99.29;99270.38;5074619;28;20107;-82
2021/01/29 03:53:24;;;;;;;24.17;11.43;;;;;;;8.23;99.39;99255.16;5093456;28;20037;-83
2021/01/29 03:56:03;;;;;;;20.83;9.77;;;;;;;8.21;99.21;99261.09;5081541;28;20086;-82
2021/01/29 03:58:34;;;;;;;23.27;11.77;;;;;;;8.21;99.30;99256.00;5078723;28;20074;-82
2021/01/29 04:01:13;;;;;;;20.20;10.50;;;;;;;8.24;99.21;99250.88;5094142;28;20052;-81
2021/01/29 04:03:45;;;;;;;23.07;10.53;;;;;;;8.21;99.21;99253.44;5078148;28;20104;-82
2021/01/29 04:06:17;;;;;;;22.77;12.13;;;;;;;8.18;99.35;99256.81;5089176;28;20054;-82
2021/01/29 04:08:53;;;;;;;23.67;10.63;;;;;;;8.21;99.35;99245.75;5090306;28;20035;-82
2021/01/29 04:11:26;;;;;;;19.83;9.98;;;;;;;8.24;99.02;99253.44;5072940;28;20074;-81
2021/01/29 04:13:58;;;;;;;15.73;9.80;;;;;;;8.27;98.87;99245.78;5077279;28;20498;-82
2021/01/29 04:16:33;;;;;;;16.33;9.13;;;;;;;8.26;98.71;99241.53;5090523;28;20031;-84
2021/01/29 04:19:01;;;;;;;12.93;8.07;;;;;;;8.29;98.46;99242.41;5088462;28;20055;-82
2021/01/29 04:21:39;;;;;;;14.60;7.77;;;;;;;8.37;98.02;99243.34;5075526;28;20433;-82
2021/01/29 04:24:05;;;;;;;11.47;6.47;;;;;;;8.40;97.50;99237.38;5078672;28;20095;-82
2021/01/29 04:26:35;;;;;;;9.95;7.18;;;;;;;8.38;97.20;99242.50;5073933;28;20020;-81
2021/01/29 04:29:06;;;;;;;11.47;6.47;;;;;;;8.40;97.08;99242.50;5076790;28;20393;-82
2021/01/29 04:31:34;;;;;;;10.67;6.70;;;;;;;8.34;96.99;99232.22;5074020;28;20444;-84
2021/01/29 04:34:06;;;;;;;11.93;5.60;;;;;;;8.29;97.01;99232.16;5074366;28;20384;-82
2021/01/29 04:36:33;;;;;;;8.63;4.37;;;;;;;8.29;96.69;99238.97;5090471;28;20470;-83
2021/01/29 04:39:14;;;;;;;6.97;3.23;;;;;;;8.27;96.33;99240.69;5090342;28;20032;-83
2021/01/29 04:41:58;;;;;;;8.53;3.30;;;;;;;8.31;95.95;99232.19;5086731;28;20079;-82
2021/01/29 04:44:38;;;;;;;5.73;3.20;;;;;;;8.25;95.89;99234.69;5081551;28;20024;-82
2021/01/29 04:47:22;;;;;;;5.97;2.53;;;;;;;8.21;96.01;99235.53;5076246;28;20028;-83
2021/01/29 04:50:16;;;;;;;6.67;2.57;;;;;;;8.21;96.29;99233.81;5075043;28;20547;-82
2021/01/29 04:53:17;;;;;;;5.77;1.70;;;;;;;8.20;95.60;99239.78;5089413;28;20504;-82
2021/01/29 04:55:59;;;;;;;5.17;1.80;;;;;;;8.22;95.61;99252.59;5086049;28;20033;-82
2021/01/29 04:58:28;;;;;;;6.17;1.93;;;;;;;8.18;95.68;99243.19;5089405;28;20041;-82
2021/01/29 05:01:35;;;;;;;5.03;2.03;;;;;;;8.16;95.86;99237.19;5086809;22;20044;-79
2021/01/29 05:04:04;;;;;;;2.73;1.43;;;;;;;8.17;95.42;99223.56;5073963;28;20024;-79
2021/01/29 05:06:44;;;;;;;4.20;1.27;;;;;;;8.09;95.47;99237.13;5072786;28;20393;-79
2021/01/29 05:09:46;;;;;;;10.60;1.80;;;;;;;8.09;95.19;99242.25;5052224;28;20024;-78
2021/01/29 05:12:29;;;;;;;4.70;1.20;;;;;;;8.04;95.59;99235.38;5031467;28;20041;-78
2021/01/29 05:15:23;;;;;;;7.13;1.30;;;;;;;8.01;95.92;99236.22;5054721;28;20387;-79
2021/01/29 05:17:51;;;;;;;2.77;1.13;;;;;;;8.03;95.94;99242.19;5052757;28;20025;-78
2021/01/29 05:20:28;;;;;;;6.10;1.37;;;;;;;8.05;95.54;99243.06;5053352;28;20028;-77
2021/01/29 05:23:07;;;;;;;7.60;1.40;;;;;;;8.03;95.87;99249.88;5052570;28;20052;-79
2021/01/29 05:25:51;;;;;;;6.90;1.30;;;;;;;8.03;95.57;99242.19;5054784;28;20025;-77
2021/01/29 05:28:25;;;;;;;8.13;1.70;;;;;;;7.95;95.61;99248.97;5053271;28;20124;-79
2021/01/29 05:31:32;;;;;;;13.00;1.70;;;;;;;7.98;95.71;99243.00;5054065;28;20024;-79
2021/01/29 05:34:30;;;;;;;14.23;2.00;;;;;;;7.95;95.56;99235.31;5054743;28;20049;-79
2021/01/29 05:37:08;;;;;;;7.23;1.23;;;;;;;7.94;95.71;99252.34;5055912;28;20072;-80
2021/01/29 05:39:57;;;;;;;11.97;1.57;;;;;;;7.94;95.76;99256.63;5054050;28;20086;-79
2021/01/29 05:42:59;;;;;;;17.57;2.10;;;;;;;7.96;95.55;99255.78;5054837;28;20029;-79
2021/01/29 05:45:44;;;;;;;15.13;1.70;;;;;;;7.99;95.56;99254.94;5048824;28;20456;-78
2021/01/29 05:48:27;;;;;;;9.33;1.27;;;;;;;7.98;95.62;99255.78;5054179;28;20033;-80
2021/01/29 05:51:09;;;;;;;16.57;1.80;;;;;;;7.98;95.33;99251.53;5053975;28;20029;-78
2021/01/29 05:53:54;;;;;;;13.67;2.10;;;;;;;7.94;95.49;99257.47;5055057;28;20029;-77
2021/01/29 05:56:34;;;;;;;18.00;2.07;;;;;;;7.97;95.33;99261.75;5054191;28;20037;-79
2021/01/29 05:59:33;;;;;;;15.80;1.80;;;;;;;7.94;95.64;99261.72;5052638;28;20482;-78
2021/01/29 06:02:26;;;;;;;12.70;2.20;;;;;;;7.94;95.60;99265.13;5053856;28;20051;-79
2021/01/29 06:05:11;;;;;;;13.93;3.00;;;;;;;7.96;95.57;99260.91;5052196;28;20112;-77
2021/01/29 06:08:12;;;;;;;9.67;2.13;;;;;;;7.95;95.82;99268.56;5053119;28;20052;-78
2021/01/29 06:11:13;;;;;;;10.47;1.70;;;;;;;7.92;95.78;99254.03;5053217;28;20025;-78
2021/01/29 06:14:07;;;;;;;9.03;1.37;;;;;;;7.91;95.92;99252.34;5052703;28;20070;-79
2021/01/29 06:17:04;;;;;;;7.07;1.37;;;;;;;7.89;96.16;99248.91;5052709;28;20060;-79
2021/01/29 06:20:07;;;;;;;6.53;1.60;;;;;;;7.95;96.36;99242.97;5051340;28;20410;-79
2021/01/29 06:22:46;;;;;;;11.67;2.00;;;;;;;7.95;96.19;99248.97;5053499;28;20078;-79
2021/01/29 06:25:37;;;;;;;11.40;2.67;;;;;;;8.00;96.35;99252.41;5051806;28;20048;-78
2021/01/29 06:28:24;;;;;;;15.50;2.87;;;;;;;8.07;96.27;99236.25;5056142;28;20032;-77
2021/01/29 06:30:59;;;;;;;17.75;3.75;;;;;;;8.11;95.98;99245.66;5050179;28;20479;-77
2021/01/29 06:33:46;;;;;;;17.87;3.67;;;;;;;8.20;95.89;99249.16;5054058;28;20042;-78
2021/01/29 06:36:30;;;;;;;;;;;;;;;8.21;95.64;99256.00;5053942;28;20032;-77
2021/01/29 06:39:04;;;;;;;19.73;3.57;;;;;;;8.22;95.44;99253.44;5052580;28;20433;-78
2021/01/29 06:42:05;;;;;;;16.57;2.50;;;;;;;8.27;95.53;99262.00;5054739;28;20020;-78
2021/01/29 06:44:48;;;;;;;18.17;2.53;;;;;;;8.28;95.28;99263.72;5038702;28;20044;-78
2021/01/29 06:47:33;;;;;;;14.23;2.57;;;;;;;8.26;95.51;99274.78;5053469;28;20378;-79
2021/01/29 06:50:16;;;;;;;20.60;3.60;;;;;;;8.27;95.25;99279.91;5053576;28;20017;-79
2021/01/29 06:53:12;;;;;;;24.37;3.60;;;;;;;8.24;95.40;99273.91;5052476;28;20553;-79
2021/01/29 06:56:17;;;;;;;17.30;3.17;;;;;;;8.25;95.07;99279.03;5055087;28;20035;-78
2021/01/29 06:59:04;;;;;;;14.70;2.93;;;;;;;8.22;95.22;99288.41;5060122;28;20021;-81
2021/01/29 07:01:47;;;;;;;16.05;3.83;;;;;;;8.18;95.76;99282.41;5052379;28;20052;-77
2021/01/29 07:04:38;;;;;;;14.90;3.00;;;;;;;8.11;95.78;99284.03;5052561;28;20028;-79
2021/01/29 07:07:40;;;;;;;27.73;3.43;;;;;;;8.04;96.26;99300.16;5052075;28;20029;-78
2021/01/29 07:10:22;;;;;;;30.03;4.57;;;;;;;8.05;96.12;99303.59;5050746;28;20021;-77
2021/01/29 07:13:09;;;;;;;33.57;5.07;;;;;;;8.05;95.69;99294.22;5051207;28;20045;-78
2021/01/29 07:16:00;;;;;;;17.65;3.35;;;;;;;8.05;95.63;99309.56;5050575;28;20048;-77
2021/01/29 07:18:40;;;;;;;33.47;5.77;;;;;;;8.04;95.25;99295.06;5048791;28;20052;-78
2021/01/29 07:21:20;;;;;;;33.63;4.80;;;;;;;8.03;95.05;99303.56;5047652;28;20032;-77
2021/01/29 07:24:10;;;;;;;44.07;5.77;;;;;;;8.05;94.66;99307.00;5047595;28;20478;-78
2021/01/29 07:27:13;;;;;;;27.30;4.80;;;;;;;8.05;94.46;99307.00;5045720;28;20017;-78
2021/01/29 07:30:04;;;;;;;43.73;6.67;;;;;;;8.06;94.21;99333.44;5012876;28;20044;-78
2021/01/29 07:32:44;;;;;;;30.57;4.57;;;;;;;8.06;93.78;99321.50;5046625;28;20054;-77
2021/01/29 07:35:22;;;;;;;37.80;5.57;;;;;;;8.07;93.70;99330.03;5052631;28;20041;-80
2021/01/29 07:38:05;;;;;;;39.00;5.93;;;;;;;8.02;93.69;99340.22;5050559;28;20541;-78
2021/01/29 07:40:53;;;;;;;46.37;5.90;;;;;;;8.08;93.31;99339.41;5049377;28;20112;-80
2021/01/29 07:43:40;;;;;;;42.20;5.73;;;;;;;8.07;93.18;99338.56;5051747;28;20021;-80
2021/01/29 07:46:34;;;;;;;41.53;4.72;;;;;;;8.07;92.91;99350.47;5050642;28;20048;-77
2021/01/29 07:49:29;;;;;;;35.50;5.17;;;;;;;8.09;92.08;99352.22;5052940;28;20066;-78
2021/01/29 07:52:15;;;;;;;37.93;5.27;;;;;;;8.05;92.70;99378.59;5051467;28;20402;-78
2021/01/29 07:55:08;;;;;;;43.77;5.60;;;;;;;8.06;92.36;99370.09;5048656;28;20037;-77
2021/01/29 07:58:14;;;;;;;45.00;5.33;;;;;;;8.02;92.09;99381.13;5052395;28;20043;-77
2021/01/29 08:01:02;;;;;;;52.43;5.30;;;;;;;7.99;92.48;99377.69;4974029;28;20022;-78
2021/01/29 08:03:56;;;;;;;37.10;5.07;;;;;;;8.00;92.12;99387.06;4991450;28;20622;-78
2021/01/29 08:06:30;;;;;;;47.50;7.37;;;;;;;7.98;91.89;99402.41;5039445;28;20127;-79
2021/01/29 08:09:04;;;;;;;45.40;6.37;;;;;;;7.97;92.04;99416.03;5051488;28;20064;-79
2021/01/29 08:11:35;;;;;;;36.47;5.17;;;;;;;7.92;91.75;99407.44;5052443;28;20039;-77
2021/01/29 08:14:14;;;;;;;36.97;5.80;;;;;;;7.93;91.97;99395.53;5051134;28;20036;-78
2021/01/29 08:17:32;;;;;;;43.27;5.63;;;;;;;7.92;91.53;99411.72;5057029;28;20037;-79
2021/01/29 08:20:18;;;;;;;31.45;5.32;;;;;;;7.93;90.71;99423.66;4979576;28;20038;-80
2021/01/29 08:23:28;;;;;;;35.37;5.67;;;;;;;7.94;91.04;99423.66;4960520;28;20544;-81
2021/01/29 08:26:10;;;;;;;44.63;6.47;;;;;;;7.97;90.94;99416.03;5043865;28;20041;-82
2021/01/29 08:29:09;;;;;;;47.90;6.00;;;;;;;7.98;89.90;99420.31;5058538;28;20081;-81
2021/01/29 08:31:52;;;;;;;42.90;5.63;;;;;;;7.97;90.73;99426.25;5063221;28;20074;-81
2021/01/29 08:34:22;;;;;;;44.87;6.73;;;;;;;7.97;90.15;99423.69;5064216;28;20037;-81
2021/01/29 08:37:21;;;;;;;39.23;6.10;;;;;;;8.02;90.17;99434.84;5063005;28;21032;-82
2021/01/29 08:40:12;;;;;;;39.40;6.87;;;;;;;8.05;89.83;99439.97;5059314;28;20578;-80
2021/01/29 08:43:02;;;;;;;38.93;5.93;;;;;;;8.03;89.50;99430.56;5058098;28;20021;-81
2021/01/29 08:46:01;;;;;;;36.33;5.33;;;;;;;7.99;90.32;99445.03;5061192;28;20478;-81
2021/01/29 08:48:36;;;;;;;37.07;5.60;;;;;;;8.00;90.16;99451.84;5061388;28;20037;-82
2021/01/29 08:51:07;;;;;;;45.70;5.30;;;;;;;8.04;89.70;99445.06;5064947;28;20058;-81
2021/01/29 08:53:51;;;;;;;44.70;5.77;;;;;;;8.06;89.35;99446.81;5063969;28;20025;-79
2021/01/29 08:56:46;;;;;;;38.37;4.80;;;;;;;8.08;89.35;99460.47;5066246;28;20033;-84
2021/01/29 08:59:18;;;;;;;38.47;5.60;;;;;;;8.13;89.34;99458.00;5064083;28;20040;-80
2021/01/29 09:01:47;;;;;;;42.73;5.60;;;;;;;8.12;88.96;99454.53;5066942;28;20013;-80
2021/01/29 09:04:36;;;;;;;31.67;5.23;;;;;;;8.11;89.06;99450.28;5065943;28;20048;-80
2021/01/29 09:07:16;;;;;;;41.00;5.37;;;;;;;8.14;89.39;99464.81;5065863;28;20031;-81
2021/01/29 09:09:41;;;;;;;44.77;5.60;;;;;;;8.19;89.17;99458.06;5066303;28;20028;-80
2021/01/29 09:12:15;;;;;;;37.88;6.00;;;;;;;8.23;89.25;99464.06;5065350;28;20050;-79
2021/01/29 09:14:50;;;;;;;38.10;6.30;;;;;;;8.27;89.20;99464.09;5065890;28;20123;-80
2021/01/29 09:17:26;;;;;;;39.43;5.03;;;;;;;8.28;88.98;99467.53;5065285;28;20050;-80
2021/01/29 09:20:03;;;;;;;34.33;5.63;;;;;;;8.37;88.94;99475.31;5063770;28;20025;-81
2021/01/29 09:22:53;;;;;;;34.83;4.57;;;;;;;8.38;88.35;99482.16;5063935;28;20055;-79
2021/01/29 09:25:31;;;;;;;42.43;5.80;;;;;;;8.42;88.69;99471.09;5065065;28;20025;-80
2021/01/29 09:28:38;;;;;;;38.57;5.37;;;;;;;8.47;88.36;99482.25;5064507;28;20024;-80
2021/01/29 09:31:23;;;;;;;35.63;5.13;;;;;;;8.52;87.93;99477.19;5054814;28;20092;-83
2021/01/29 09:34:00;;;;;;;38.73;5.17;;;;;;;8.81;87.47;99493.69;5062525;28;20025;-81
2021/01/29 09:36:46;;;;;;;35.57;5.37;;;;;;;9.04;86.58;99489.59;5063052;28;20036;-82
2021/01/29 09:39:22;;;;;;;40.83;5.17;;;;;;;9.14;85.52;99490.56;5063052;28;20044;-82
2021/01/29 09:41:57;;;;;;;35.33;4.23;;;;;;;8.99;85.31;99490.41;5062235;28;20478;-82
2021/01/29 09:44:28;;;;;;;29.60;3.70;;;;;;;8.96;86.06;99500.63;5065022;28;20031;-82
2021/01/29 09:46:56;;;;;;;33.07;5.00;;;;;;;8.95;86.41;99504.91;5064363;28;20101;-82
2021/01/29 09:49:25;;;;;;;28.17;4.47;;;;;;;8.92;86.52;99502.31;5063259;28;20088;-79
2021/01/29 09:52:00;;;;;;;29.77;4.63;;;;;;;8.97;86.42;99502.34;5065078;28;20028;-82
2021/01/29 09:54:48;;;;;;;40.40;5.33;;;;;;;9.00;86.41;99515.19;5064423;28;20021;-81
2021/01/29 09:57:19;;;;;;;36.63;4.23;;;;;;;9.02;86.34;99518.59;5065029;28;20040;-81
2021/01/29 10:00:06;;;;;;;28.97;4.17;;;;;;;9.02;86.35;99510.91;5065449;28;20017;-81
2021/01/29 10:02:52;;;;;;;38.97;4.85;;;;;;;9.01;86.27;99510.06;5064312;28;20025;-81
2021/01/29 10:05:20;;;;;;;32.78;4.13;;;;;;;9.02;85.96;99513.50;5063660;28;20040;-80
2021/01/29 10:08:01;;;;;;;27.23;4.10;;;;;;;8.98;86.12;99524.56;5062502;28;20033;-81
2021/01/29 10:10:42;;;;;;;36.13;5.87;;;;;;;8.98;86.25;99515.16;5062393;28;20087;-82
2021/01/29 10:13:25;;;;;;;30.47;4.73;;;;;;;8.95;86.30;99514.28;5063211;28;20024;-80
2021/01/29 10:16:16;;;;;;;32.47;4.20;;;;;;;8.91;86.60;99525.34;5065131;28;20055;-81
2021/01/29 10:18:49;;;;;;;25.98;3.40;;;;;;;8.81;86.84;99526.13;5063509;28;20048;-82
2021/01/29 10:21:20;;;;;;;21.30;3.77;;;;;;;8.79;86.15;99512.44;5063200;28;20478;-82
2021/01/29 10:23:57;;;;;;;26.53;4.30;;;;;;;8.81;86.75;99531.25;5065800;28;20036;-81
2021/01/29 10:26:31;;;;;;;41.63;5.37;;;;;;;8.83;86.75;99525.28;5064709;28;20029;-83
2021/01/29 10:29:07;;;;;;;28.23;3.83;;;;;;;8.85;86.28;99517.63;5064611;28;20111;-82
2021/01/29 10:31:45;;;;;;;25.37;4.73;;;;;;;8.83;86.43;99522.72;5063502;28;20032;-81
2021/01/29 10:34:23;;;;;;;35.43;4.97;;;;;;;8.86;86.54;99524.44;5063758;28;20024;-80
2021/01/29 10:37:00;;;;;;;25.50;3.97;;;;;;;8.82;87.15;99531.25;5063954;28;20088;-82
2021/01/29 10:39:45;;;;;;;27.63;4.50;;;;;;;8.79;86.75;99523.53;5065266;28;20025;-81
2021/01/29 10:42:17;;;;;;;29.33;4.13;;;;;;;8.76;86.75;99520.94;5064780;28;20035;-82
2021/01/29 10:44:44;;;;;;;34.47;4.20;;;;;;;8.73;86.59;99521.75;5064490;28;20025;-83
2021/01/29 10:47:27;;;;;;;34.00;4.77;;;;;;;8.72;86.67;99527.72;5065560;28;20025;-80
2021/01/29 10:49:59;;;;;;;24.07;3.83;;;;;;;8.68;87.32;99532.78;5064074;28;20032;-83
2021/01/29 10:53:18;;;;;;;38.43;5.50;;;;;;;8.65;86.97;99530.22;5061303;28;20086;-82
2021/01/29 10:56:22;;;;;;;28.10;5.10;;;;;;;8.69;86.98;99537.94;4986777;28;20023;-83
2021/01/29 10:59:10;;;;;;;44.17;4.30;;;;;;;8.70;86.65;99526.00;5062371;28;20060;-83
2021/01/29 11:01:44;;;;;;;27.43;3.80;;;;;;;8.74;86.82;99525.19;5064407;28;20021;-80
2021/01/29 11:04:26;;;;;;;32.80;4.17;;;;;;;8.84;86.88;99538.94;5063465;28;20025;-83
2021/01/29 11:07:19;;;;;;;33.70;4.23;;;;;;;8.90;86.50;99533.88;5062671;28;20032;-83
2021/01/29 11:09:59;;;;;;;32.03;4.03;;;;;;;8.91;86.34;99541.56;5062011;28;20052;-85
2021/01/29 11:12:37;;;;;;;22.00;3.58;;;;;;;8.97;86.41;99546.75;5061829;28;20172;-81
2021/01/29 11:15:28;;;;;;;33.47;3.97;;;;;;;8.94;86.00;99540.75;5062559;28;20037;-82
2021/01/29 11:18:11;;;;;;;27.25;4.05;;;;;;;8.93;86.40;99551.84;5062141;28;20029;-81
2021/01/29 11:20:41;;;;;;;31.93;4.83;;;;;;;8.88;86.40;99548.38;5062684;28;20029;-82
2021/01/29 11:23:43;;;;;;;30.23;3.83;;;;;;;8.82;86.58;99544.06;5063684;28;20054;-81
2021/01/29 11:26:34;;;;;;;28.90;3.60;;;;;;;8.83;86.31;99565.41;5061919;28;20052;-81
2021/01/29 11:29:08;;;;;;;25.20;3.53;;;;;;;8.80;86.57;99550.00;5060758;28;20033;-80
2021/01/29 11:31:59;;;;;;;22.47;3.50;;;;;;;8.89;86.45;99561.19;5059494;28;20033;-82
2021/01/29 11:34:32;;;;;;;26.63;4.13;;;;;;;8.97;86.01;99563.81;5059711;28;20025;-82
2021/01/29 11:37:16;;;;;;;25.13;4.00;;;;;;;8.92;85.85;99552.69;5060666;28;20071;-81
2021/01/29 11:40:23;;;;;;;25.10;4.03;;;;;;;8.93;85.53;99552.69;5058134;28;20060;-82
2021/01/29 11:43:01;;;;;;;28.35;4.20;;;;;;;9.01;85.20;99555.31;5057478;28;20056;-84
2021/01/29 11:45:37;;;;;;;21.23;2.83;;;;;;;9.16;85.45;99560.59;5060415;28;20025;-85
2021/01/29 11:48:10;;;;;;;22.42;3.78;;;;;;;9.20;84.75;99562.34;5077700;22;20052;-81
2021/01/29 11:50:49;;;;;;;18.23;3.80;;;;;;;9.29;84.24;99558.97;5069096;28;20024;-82
2021/01/29 11:53:21;;;;;;;30.15;4.05;;;;;;;9.41;84.36;99558.19;5069410;28;20036;-81
2021/01/29 11:56:10;;;;;;;26.33;3.65;;;;;;;9.51;84.37;99557.44;5070894;28;20028;-79
2021/01/29 11:58:45;;;;;;;32.28;4.18;;;;;;;9.89;82.81;99556.00;5053116;28;20575;-81
2021/01/29 12:01:36;;;;;;;27.63;3.47;;;;;;;10.18;82.08;99560.41;5067436;28;20031;-83
2021/01/29 12:04:12;;;;;;;27.85;3.80;;;;;;;9.95;81.99;99548.31;5071631;28;20021;-84
2021/01/29 12:07:01;;;;;;;20.40;3.72;;;;;;;9.79;83.04;99549.09;5100378;28;20403;-81
2021/01/29 12:09:48;;;;;;;22.30;3.33;;;;;;;9.73;82.80;99553.31;5070507;28;20501;-80
2021/01/29 12:12:41;;;;;;;23.70;3.55;;;;;;;9.79;82.31;99545.69;5074751;28;20036;-80
2021/01/29 12:15:46;;;;;;;21.23;3.57;;;;;;;9.77;82.10;99561.06;5074603;28;20099;-80
2021/01/29 12:18:14;;;;;;;30.67;4.03;;;;;;;9.86;83.61;99545.72;5070179;28;20075;-83
2021/01/29 12:20:44;;;;;;;31.20;3.83;;;;;;;9.75;83.22;99557.59;5075505;28;20040;-81
2021/01/29 12:23:19;;;;;;;28.55;3.75;;;;;;;9.68;84.53;99555.84;5076527;28;20054;-81
2021/01/29 12:25:49;;;;;;;24.73;4.00;;;;;;;9.52;85.37;99554.91;5075729;28;20028;-81
2021/01/29 12:28:23;;;;;;;27.10;3.60;;;;;;;9.40;85.67;99541.09;5075376;28;20075;-82